Time;durP1;ratioP1;P1;durP2;ratioP2;P2;SDS_P1;SDS_P2;PMS_P1;PMS_P2;Temp;Humidity;BMP_temperature;BMP_pressure;BME280_temperature;BME280_humidity;BME280_pressure;Samples;Min_cycle;Max_cycle;Signal;HPM_P1;HPM_P2
2023/02/11 00:01:31;;;;;;;23.92;9.48;;;7.90;99.90;;;;;;5042117;28;20026;-91
2023/02/11 00:04:02;;;;;;;16.15;8.10;;;7.90;99.90;;;;;;5042362;28;20073;-93
2023/02/11 00:06:30;;;;;;;23.75;8.48;;;7.90;99.90;;;;;;5036961;28;20026;-92
2023/02/11 00:08:56;;;;;;;21.77;8.13;;;7.90;99.90;;;;;;5019229;28;20026;-91
2023/02/11 00:11:29;;;;;;;24.35;8.02;;;7.90;99.90;;;;;;5036233;28;20019;-93
2023/02/11 00:14:07;;;;;;;24.00;8.80;;;7.90;99.90;;;;;;5036798;28;20022;-92
2023/02/11 00:16:32;;;;;;;21.35;8.43;;;7.90;99.90;;;;;;5053077;28;20021;-93
2023/02/11 00:19:05;;;;;;;29.65;11.85;;;7.80;99.90;;;;;;5036463;28;20029;-92
2023/02/11 00:21:30;;;;;;;18.77;7.72;;;7.90;99.90;;;;;;5036438;28;20021;-91
2023/02/11 00:23:58;;;;;;;19.73;7.40;;;7.90;99.90;;;;;;5047112;28;20021;-90
2023/02/11 00:26:26;;;;;;;19.80;6.97;;;7.80;99.90;;;;;;5060010;28;20059;-90
2023/02/11 00:28:52;;;;;;;17.33;7.85;;;7.90;99.90;;;;;;5058811;28;20009;-92
2023/02/11 00:31:20;;;;;;;18.58;8.13;;;7.80;99.90;;;;;;5038450;28;20024;-91
2023/02/11 00:33:46;;;;;;;19.75;8.23;;;7.80;99.90;;;;;;5036719;28;20025;-90
2023/02/11 00:36:19;;;;;;;21.73;7.55;;;7.80;99.90;;;;;;5043876;28;20025;-93
2023/02/11 00:38:47;;;;;;;19.13;6.95;;;7.80;99.90;;;;;;5039622;28;20047;-90
2023/02/11 00:41:13;;;;;;;22.30;8.07;;;7.90;99.90;;;;;;5048145;28;20017;-91
2023/02/11 00:43:40;;;;;;;19.75;8.07;;;7.80;99.90;;;;;;5054315;28;20033;-91
2023/02/11 00:46:09;;;;;;;21.33;7.88;;;7.80;99.90;;;;;;5056227;28;20028;-92
2023/02/11 00:48:35;;;;;;;19.63;7.05;;;7.90;99.90;;;;;;5046932;28;20032;-91
2023/02/11 00:51:04;;;;;;;16.90;7.28;;;7.80;99.90;;;;;;5048937;28;20014;-91
2023/02/11 00:53:30;;;;;;;27.65;9.05;;;7.90;99.90;;;;;;5057042;28;20025;-92
2023/02/11 00:55:56;;;;;;;18.55;6.88;;;7.90;99.90;;;;;;5041411;28;20032;-92
2023/02/11 00:58:22;;;;;;;16.50;7.35;;;7.90;99.90;;;;;;5037677;28;20361;-93
2023/02/11 01:00:48;;;;;;;19.95;6.50;;;7.90;99.90;;;;;;5037886;28;20056;-91
2023/02/11 01:03:14;;;;;;;16.63;7.28;;;7.90;99.90;;;;;;5032400;28;20064;-92
2023/02/11 01:05:45;;;;;;;18.80;6.72;;;7.90;99.90;;;;;;5035368;28;20033;-91
2023/02/11 01:08:11;;;;;;;15.60;7.10;;;7.90;99.90;;;;;;5035375;28;20124;-92
2023/02/11 01:10:37;;;;;;;17.60;6.80;;;7.90;99.90;;;;;;5035104;28;20053;-92
2023/02/11 01:13:05;;;;;;;20.00;6.68;;;7.90;99.90;;;;;;5035150;28;20022;-92
2023/02/11 01:15:31;;;;;;;21.23;6.47;;;7.90;99.90;;;;;;5033340;28;20100;-91
2023/02/11 01:17:57;;;;;;;21.60;7.60;;;7.90;99.90;;;;;;5034451;28;20033;-92
2023/02/11 01:20:25;;;;;;;20.80;6.63;;;7.90;99.90;;;;;;5035208;28;20108;-92
2023/02/11 01:22:50;;;;;;;21.45;7.10;;;7.90;99.90;;;;;;5035284;28;20029;-92
2023/02/11 01:25:16;;;;;;;20.25;6.40;;;7.90;99.90;;;;;;5034962;28;20105;-92
2023/02/11 01:27:44;;;;;;;23.10;8.40;;;7.90;99.90;;;;;;5051649;28;20443;-93
2023/02/11 01:30:12;;;;;;;19.98;6.00;;;7.90;99.90;;;;;;5034663;28;20030;-92
2023/02/11 01:32:38;;;;;;;23.75;6.90;;;7.90;99.90;;;;;;5035019;28;20049;-93
2023/02/11 01:35:04;;;;;;;24.65;6.72;;;7.80;99.90;;;;;;5034785;28;20103;-93
2023/02/11 01:37:32;;;;;;;19.00;5.88;;;7.80;99.90;;;;;;5034524;28;20068;-92
2023/02/11 01:40:00;;;;;;;19.63;6.53;;;7.80;99.90;;;;;;5034705;28;20051;-93
2023/02/11 01:42:28;;;;;;;20.20;7.35;;;7.80;99.90;;;;;;5051118;28;20093;-91
2023/02/11 01:44:54;;;;;;;20.92;7.10;;;7.80;99.90;;;;;;5034847;28;20025;-92
2023/02/11 01:47:20;;;;;;;19.83;6.22;;;7.80;99.90;;;;;;5033822;28;20018;-92
2023/02/11 01:49:55;;;;;;;19.23;6.57;;;7.80;99.90;;;;;;5018660;28;20049;-92
2023/02/11 01:52:31;;;;;;;;;;;7.80;99.90;;;;;;5034719;28;20017;-92
2023/02/11 01:57:47;;;;;;;18.40;6.05;;;7.80;99.90;;;;;;5035447;28;20040;-92
2023/02/11 02:00:20;;;;;;;24.35;6.93;;;7.80;99.90;;;;;;5034016;28;20133;-92
2023/02/11 02:02:54;;;;;;;16.30;6.57;;;7.80;99.90;;;;;;5033381;28;20060;-93
2023/02/11 02:05:34;;;;;;;20.35;5.65;;;7.80;99.90;;;;;;5050762;28;20037;-92
2023/02/11 02:08:28;;;;;;;19.10;6.47;;;7.80;99.90;;;;;;5035152;28;20177;-92
2023/02/11 02:10:55;;;;;;;19.23;6.40;;;7.90;99.90;;;;;;5030187;28;20030;-92
2023/02/11 02:13:22;;;;;;;24.15;6.45;;;7.80;99.90;;;;;;5024069;28;20411;-92
2023/02/11 02:15:55;;;;;;;20.90;6.40;;;7.80;99.90;;;;;;5034361;28;20081;-93
2023/02/11 02:18:42;;;;;;;16.52;5.75;;;7.80;99.90;;;;;;5034094;28;20029;-92
2023/02/11 02:21:26;;;;;;;18.52;6.63;;;7.90;99.90;;;;;;5050550;28;20021;-93
2023/02/11 02:24:24;;;;;;;14.73;6.53;;;7.80;99.90;;;;;;5050679;28;20017;-93
2023/02/11 02:27:30;;;;;;;15.57;5.82;;;7.80;99.90;;;;;;5051743;28;20025;-92
2023/02/11 02:30:32;;;;;;;15.50;5.45;;;7.80;99.90;;;;;;5034970;28;20025;-91
2023/02/11 02:33:04;;;;;;;16.00;5.40;;;7.80;99.90;;;;;;5033758;28;20025;-92
2023/02/11 02:35:41;;;;;;;17.73;5.75;;;7.80;99.90;;;;;;5050849;28;20024;-92
2023/02/11 02:38:12;;;;;;;19.13;6.35;;;7.80;99.90;;;;;;5050957;28;20026;-92
2023/02/11 02:40:49;;;;;;;19.90;5.57;;;7.80;99.90;;;;;;5034001;28;20020;-92
2023/02/11 02:43:19;;;;;;;16.23;6.25;;;7.80;99.90;;;;;;5033747;28;20018;-93
2023/02/11 02:45:44;;;;;;;18.58;6.88;;;7.80;99.90;;;;;;5034475;28;20025;-92
2023/02/11 02:48:28;;;;;;;15.60;5.60;;;7.80;99.90;;;;;;5033658;28;20022;-92
2023/02/11 02:51:09;;;;;;;16.70;6.03;;;7.80;99.90;;;;;;5047964;28;20032;-93
2023/02/11 02:53:55;;;;;;;16.27;5.35;;;7.70;99.90;;;;;;5073534;28;20034;-92
2023/02/11 02:56:43;;;;;;;21.88;6.15;;;7.70;99.90;;;;;;5056932;28;20021;-91
2023/02/11 02:59:35;;;;;;;19.25;5.97;;;7.70;99.90;;;;;;5033671;28;20017;-91
2023/02/11 03:02:07;;;;;;;22.40;6.20;;;7.70;99.90;;;;;;5033800;28;20025;-93
2023/02/11 03:04:51;;;;;;;27.40;7.28;;;7.70;99.90;;;;;;5050099;28;20045;-93
2023/02/11 03:07:29;;;;;;;24.08;7.20;;;7.70;99.90;;;;;;5033431;28;20049;-92
2023/02/11 03:10:26;;;;;;;19.80;6.00;;;7.70;99.90;;;;;;5033869;28;20021;-91
2023/02/11 03:12:56;;;;;;;13.70;5.85;;;7.70;99.90;;;;;;5031237;28;20025;-92
2023/02/11 03:15:24;;;;;;;21.30;6.13;;;7.70;99.90;;;;;;5034707;28;20026;-93
2023/02/11 03:17:57;;;;;;;22.33;6.32;;;7.70;99.90;;;;;;5037335;28;20022;-93
2023/02/11 03:20:23;;;;;;;15.00;5.90;;;7.60;99.90;;;;;;5036926;28;20032;-93
2023/02/11 03:23:02;;;;;;;14.98;6.18;;;7.60;99.90;;;;;;5037266;28;20014;-93
2023/02/11 03:25:36;;;;;;;25.98;7.35;;;7.70;99.90;;;;;;5036873;28;20025;-92
2023/02/11 03:28:53;;;;;;;22.38;6.53;;;7.70;99.90;;;;;;5037430;28;20017;-92
2023/02/11 03:31:27;;;;;;;19.10;6.05;;;7.60;99.90;;;;;;5013704;28;20116;-92
2023/02/11 03:34:13;;;;;;;20.17;6.47;;;7.60;99.90;;;;;;5037221;28;20087;-93
2023/02/11 03:36:41;;;;;;;19.73;6.68;;;7.60;99.90;;;;;;5037311;28;20022;-91
2023/02/11 03:39:09;;;;;;;22.08;6.88;;;7.60;99.90;;;;;;5054126;28;20022;-91
2023/02/11 03:41:38;;;;;;;15.60;6.10;;;7.60;99.90;;;;;;5037150;28;20072;-91
2023/02/11 03:44:05;;;;;;;20.27;6.57;;;7.60;99.90;;;;;;5037583;28;20083;-91
2023/02/11 03:46:35;;;;;;;24.08;6.78;;;7.60;99.90;;;;;;5020768;28;20116;-92
2023/02/11 03:49:10;;;;;;;20.55;7.00;;;7.60;99.90;;;;;;5037074;28;20025;-92
2023/02/11 03:51:40;;;;;;;27.33;7.43;;;7.60;99.90;;;;;;5036900;28;20021;-91
2023/02/11 03:54:13;;;;;;;23.23;9.10;;;7.60;99.90;;;;;;5037194;28;20037;-93
2023/02/11 03:56:54;;;;;;;22.55;6.88;;;7.70;99.90;;;;;;5037091;28;20028;-91
2023/02/11 03:59:20;;;;;;;22.80;8.27;;;7.60;99.90;;;;;;5042032;28;20025;-91
2023/02/11 04:01:45;;;;;;;18.80;6.50;;;7.60;99.90;;;;;;5051223;28;20093;-91
2023/02/11 04:04:12;;;;;;;26.70;8.35;;;7.60;99.90;;;;;;5053947;28;20034;-91
2023/02/11 04:06:41;;;;;;;21.52;8.05;;;7.60;99.90;;;;;;5052022;28;20021;-91
2023/02/11 04:09:09;;;;;;;20.40;7.97;;;7.60;99.90;;;;;;5048652;28;20461;-92
2023/02/11 04:11:35;;;;;;;17.25;7.55;;;7.60;99.90;;;;;;5051949;28;20036;-92
2023/02/11 04:14:04;;;;;;;16.33;7.88;;;7.60;99.90;;;;;;5047827;28;20021;-91
2023/02/11 04:16:29;;;;;;;17.20;7.40;;;7.60;99.90;;;;;;5037892;28;20120;-92
2023/02/11 04:18:56;;;;;;;25.48;8.68;;;7.60;99.90;;;;;;5038349;28;20052;-91
2023/02/11 04:21:21;;;;;;;19.73;7.43;;;7.70;99.90;;;;;;5042870;28;20033;-92
2023/02/11 04:23:47;;;;;;;18.75;8.65;;;7.70;99.90;;;;;;5036168;28;20029;-91
2023/02/11 04:26:16;;;;;;;24.20;9.73;;;7.60;99.90;;;;;;5035807;28;20018;-90
2023/02/11 04:28:41;;;;;;;21.38;7.70;;;7.70;99.90;;;;;;5036353;28;20030;-91
2023/02/11 04:31:07;;;;;;;18.52;7.80;;;7.70;99.90;;;;;;5036210;28;20032;-92
2023/02/11 04:33:33;;;;;;;22.75;8.50;;;7.70;99.90;;;;;;5035679;28;20531;-92
2023/02/11 04:35:58;;;;;;;25.55;8.43;;;7.70;99.90;;;;;;5035883;28;20022;-91
2023/02/11 04:38:25;;;;;;;23.58;8.95;;;7.70;99.90;;;;;;5035824;28;20138;-91
2023/02/11 04:40:50;;;;;;;23.73;9.50;;;7.70;99.90;;;;;;5036030;28;20026;-91
2023/02/11 04:43:19;;;;;;;21.77;8.95;;;7.70;99.90;;;;;;5059476;28;20048;-92
2023/02/11 04:45:45;;;;;;;22.85;8.43;;;7.70;99.90;;;;;;5031083;28;20097;-91
2023/02/11 04:48:10;;;;;;;21.80;9.13;;;7.70;99.90;;;;;;5062666;28;20025;-91
2023/02/11 04:50:36;;;;;;;20.25;8.75;;;7.70;99.90;;;;;;5059222;28;20414;-90
2023/02/11 04:53:04;;;;;;;23.58;9.02;;;7.70;99.90;;;;;;5037827;28;20014;-91
2023/02/11 04:55:32;;;;;;;19.00;8.88;;;7.70;99.90;;;;;;5055312;28;20029;-91
2023/02/11 04:57:58;;;;;;;20.88;8.70;;;7.70;99.90;;;;;;5038912;28;20030;-92
2023/02/11 05:00:24;;;;;;;22.50;8.93;;;7.70;99.90;;;;;;5040784;28;20087;-92
2023/02/11 05:02:49;;;;;;;22.67;9.55;;;7.70;99.90;;;;;;5062880;28;20041;-91
2023/02/11 05:05:15;;;;;;;23.25;9.13;;;7.80;99.90;;;;;;5045718;28;20021;-90
2023/02/11 05:07:41;;;;;;;26.23;10.52;;;7.70;99.90;;;;;;5041142;28;20025;-92
2023/02/11 05:10:07;;;;;;;22.65;9.73;;;7.70;99.90;;;;;;5035789;28;20053;-92
2023/02/11 05:12:32;;;;;;;23.58;9.25;;;7.70;99.90;;;;;;5035413;28;20025;-91
2023/02/11 05:14:58;;;;;;;25.70;9.63;;;7.70;99.90;;;;;;5035056;28;20491;-92
2023/02/11 05:17:24;;;;;;;25.95;9.73;;;7.70;99.90;;;;;;5035726;28;20031;-91
2023/02/11 05:19:49;;;;;;;26.83;9.73;;;7.70;99.90;;;;;;5054379;28;20017;-91
2023/02/11 05:22:15;;;;;;;22.40;9.77;;;7.70;99.90;;;;;;5058614;28;20010;-91
2023/02/11 05:24:41;;;;;;;23.33;9.93;;;7.70;99.90;;;;;;5070700;28;20377;-91
2023/02/11 05:27:09;;;;;;;24.90;9.63;;;7.70;99.90;;;;;;5034912;28;20380;-91
2023/02/11 05:29:35;;;;;;;25.05;9.80;;;7.70;99.90;;;;;;5034591;28;20087;-91
2023/02/11 05:32:01;;;;;;;28.77;10.88;;;7.70;99.90;;;;;;5034961;28;20022;-93
2023/02/11 05:34:27;;;;;;;26.35;11.38;;;7.70;99.90;;;;;;5034679;28;20022;-92
2023/02/11 05:36:52;;;;;;;27.73;11.35;;;7.80;99.90;;;;;;5034567;28;20021;-91
2023/02/11 05:39:18;;;;;;;25.65;11.93;;;7.80;99.90;;;;;;5033892;28;20017;-91
2023/02/11 05:41:44;;;;;;;26.25;11.68;;;7.70;99.90;;;;;;5018104;28;20036;-91
2023/02/11 05:44:10;;;;;;;28.20;11.07;;;7.70;99.90;;;;;;5034863;28;20056;-92
2023/02/11 05:46:38;;;;;;;20.88;11.07;;;7.80;99.90;;;;;;5034209;28;20033;-91
2023/02/11 05:49:04;;;;;;;28.23;10.80;;;7.80;99.90;;;;;;5034410;28;20063;-91
2023/02/11 05:51:30;;;;;;;27.23;12.95;;;7.80;99.90;;;;;;5017452;28;20052;-91
2023/02/11 05:53:56;;;;;;;25.45;11.60;;;7.80;99.90;;;;;;5034403;28;20017;-92
2023/02/11 05:56:21;;;;;;;27.13;12.05;;;7.80;99.90;;;;;;5035883;28;20067;-91
2023/02/11 05:58:47;;;;;;;29.05;13.45;;;7.80;99.90;;;;;;5018070;28;20021;-92
2023/02/11 06:01:13;;;;;;;25.52;12.40;;;7.80;99.90;;;;;;5034631;28;20025;-90
2023/02/11 06:03:38;;;;;;;27.70;12.68;;;7.80;99.90;;;;;;5035933;28;20049;-91
2023/02/11 06:06:07;;;;;;;29.77;12.25;;;7.80;99.90;;;;;;5035699;28;20029;-92
2023/02/11 06:08:33;;;;;;;22.48;11.60;;;7.80;99.90;;;;;;5019413;28;20029;-92
2023/02/11 06:11:01;;;;;;;26.80;12.38;;;7.80;99.90;;;;;;5034764;28;20024;-91
2023/02/11 06:13:27;;;;;;;24.67;12.52;;;7.70;99.90;;;;;;5018389;28;20026;-92
2023/02/11 06:16:02;;;;;;;25.00;12.85;;;7.80;99.90;;;;;;5017766;28;20075;-93
2023/02/11 06:18:32;;;;;;;24.33;12.68;;;7.80;99.90;;;;;;5033915;28;20014;-92
2023/02/11 06:20:58;;;;;;;34.63;13.75;;;7.80;99.90;;;;;;5019064;28;20438;-93
2023/02/11 06:23:24;;;;;;;34.63;14.05;;;7.80;99.90;;;;;;5034913;28;20029;-91
2023/02/11 06:25:51;;;;;;;34.70;13.85;;;7.80;99.90;;;;;;5035000;28;20116;-93
2023/02/11 06:28:21;;;;;;;26.55;12.80;;;7.70;99.90;;;;;;5034816;28;20025;-91
2023/02/11 06:30:49;;;;;;;26.10;13.75;;;7.70;99.90;;;;;;5042967;28;20120;-91
2023/02/11 06:33:15;;;;;;;27.65;13.43;;;7.70;99.90;;;;;;5035494;28;20023;-91
2023/02/11 06:35:40;;;;;;;29.25;13.57;;;7.70;99.90;;;;;;5034000;28;20025;-91
2023/02/11 06:38:09;;;;;;;32.10;13.80;;;7.70;99.90;;;;;;5017630;28;20032;-92
2023/02/11 06:40:34;;;;;;;24.73;14.50;;;7.70;99.90;;;;;;5033623;28;20029;-91
2023/02/11 06:43:00;;;;;;;32.45;14.77;;;7.70;99.90;;;;;;5033729;28;20552;-92
2023/02/11 06:45:28;;;;;;;34.88;15.00;;;7.70;99.90;;;;;;5033873;28;20017;-91
2023/02/11 06:47:57;;;;;;;27.92;13.65;;;7.70;99.90;;;;;;5017699;28;20034;-91
2023/02/11 06:50:23;;;;;;;30.90;14.82;;;7.70;99.90;;;;;;5039555;28;20013;-93
2023/02/11 06:52:49;;;;;;;34.55;15.88;;;7.70;99.90;;;;;;5040100;28;20377;-91
2023/02/11 06:55:14;;;;;;;28.38;15.30;;;7.70;99.90;;;;;;5023703;28;20347;-91
2023/02/11 06:57:40;;;;;;;33.40;15.02;;;7.70;99.90;;;;;;5040702;28;20021;-91
2023/02/11 07:00:07;;;;;;;36.30;17.92;;;7.70;99.90;;;;;;5039985;28;20018;-91
2023/02/11 07:02:33;;;;;;;36.55;17.05;;;7.70;99.90;;;;;;5040855;28;20104;-90
2023/02/11 07:04:58;;;;;;;32.67;17.27;;;7.70;99.90;;;;;;5023715;28;20130;-91
2023/02/11 07:07:30;;;;;;;34.25;17.38;;;7.70;99.90;;;;;;5023423;28;20032;-92
2023/02/11 07:09:56;;;;;;;33.88;16.58;;;7.70;99.90;;;;;;5039722;28;20111;-89
2023/02/11 07:12:24;;;;;;;36.47;16.67;;;7.70;99.90;;;;;;5040172;28;20107;-90
2023/02/11 07:14:50;;;;;;;38.70;16.63;;;7.70;99.90;;;;;;5024461;28;20369;-90
2023/02/11 07:17:15;;;;;;;35.00;17.63;;;7.70;99.90;;;;;;5041864;28;20026;-91
2023/02/11 07:19:44;;;;;;;40.08;18.65;;;7.80;99.90;;;;;;5052279;28;20067;-90
2023/02/11 07:22:09;;;;;;;37.95;18.80;;;7.80;99.90;;;;;;5057426;28;20017;-92
2023/02/11 07:24:38;;;;;;;37.63;17.30;;;7.80;99.90;;;;;;5059248;28;20017;-93
2023/02/11 07:27:03;;;;;;;36.55;17.92;;;7.80;99.90;;;;;;5055542;28;20021;-91
2023/02/11 07:29:29;;;;;;;39.38;19.30;;;7.80;99.90;;;;;;5040574;28;20037;-91
2023/02/11 07:31:55;;;;;;;45.83;20.98;;;7.80;99.90;;;;;;5038645;28;20112;-92
2023/02/11 07:34:25;;;;;;;44.90;19.27;;;7.70;99.90;;;;;;5030611;28;20100;-92
2023/02/11 07:36:58;;;;;;;39.92;19.33;;;7.70;99.90;;;;;;5043438;28;20075;-91
2023/02/11 07:39:26;;;;;;;43.75;20.13;;;7.70;99.90;;;;;;5043405;28;20025;-92
2023/02/11 07:41:53;;;;;;;40.10;19.95;;;7.80;99.90;;;;;;5046044;28;20087;-91
2023/02/11 07:44:26;;;;;;;43.38;20.30;;;7.70;99.90;;;;;;5054495;28;20033;-91
2023/02/11 07:46:54;;;;;;;44.17;20.55;;;7.70;99.90;;;;;;5063087;28;20048;-91
2023/02/11 07:49:22;;;;;;;44.97;20.17;;;7.80;99.90;;;;;;5045630;28;20025;-91
2023/02/11 07:51:50;;;;;;;43.97;19.70;;;7.80;99.90;;;;;;5046373;28;20024;-92
2023/02/11 07:54:16;;;;;;;43.72;20.48;;;7.80;99.90;;;;;;5039766;28;20030;-91
2023/02/11 07:56:47;;;;;;;47.00;20.02;;;7.80;99.90;;;;;;5039588;28;20028;-92
2023/02/11 07:59:12;;;;;;;45.42;21.38;;;7.80;99.90;;;;;;5039524;28;20030;-92
2023/02/11 08:01:38;;;;;;;46.42;22.88;;;7.80;99.90;;;;;;5036772;28;20017;-91
2023/02/11 08:04:13;;;;;;;42.25;21.02;;;7.80;99.90;;;;;;5035332;28;20046;-92
2023/02/11 08:06:41;;;;;;;45.45;22.25;;;7.80;99.90;;;;;;5036455;28;20022;-93
2023/02/11 08:09:09;;;;;;;49.67;22.42;;;7.80;99.90;;;;;;5036590;28;20508;-92
2023/02/11 08:11:35;;;;;;;49.10;23.33;;;7.80;99.90;;;;;;5036108;28;20021;-92
2023/02/11 08:14:01;;;;;;;48.88;23.00;;;7.90;99.90;;;;;;5038033;28;20052;-91
2023/02/11 08:16:36;;;;;;;50.60;23.10;;;7.80;99.90;;;;;;5020871;28;20025;-91
2023/02/11 08:19:09;;;;;;;49.10;23.23;;;7.90;99.90;;;;;;5020146;28;20021;-91
2023/02/11 08:21:35;;;;;;;45.47;23.55;;;7.90;99.90;;;;;;5021417;28;20025;-91
2023/02/11 08:24:04;;;;;;;48.05;23.83;;;7.80;99.90;;;;;;5035967;28;20109;-92
2023/02/11 08:26:39;;;;;;;45.30;23.13;;;7.90;99.90;;;;;;5037785;28;20096;-91
2023/02/11 08:29:12;;;;;;;47.90;24.42;;;7.90;99.90;;;;;;5036646;28;20052;-92
2023/02/11 08:31:41;;;;;;;53.72;24.10;;;7.90;99.90;;;;;;5036752;28;20025;-91
2023/02/11 08:34:10;;;;;;;44.08;22.27;;;7.90;99.90;;;;;;5035935;28;20014;-91
2023/02/11 08:36:37;;;;;;;42.28;21.52;;;7.90;99.90;;;;;;5038059;28;20025;-90
2023/02/11 08:39:13;;;;;;;49.40;23.73;;;8.00;99.90;;;;;;5023552;28;20022;-91
2023/02/11 08:41:39;;;;;;;49.10;22.55;;;8.00;99.90;;;;;;5036286;28;20013;-91
2023/02/11 08:44:05;;;;;;;51.35;22.88;;;8.00;99.90;;;;;;5036515;28;20029;-91
2023/02/11 08:46:30;;;;;;;52.80;24.08;;;8.00;99.90;;;;;;5019855;28;20036;-92
2023/02/11 08:48:58;;;;;;;57.85;26.13;;;8.00;99.90;;;;;;5019166;28;20029;-91
2023/02/11 08:51:26;;;;;;;43.25;23.15;;;8.00;99.90;;;;;;5035605;28;20061;-90
2023/02/11 08:53:53;;;;;;;51.08;24.17;;;8.00;99.90;;;;;;5036148;28;20009;-91
2023/02/11 08:56:20;;;;;;;52.20;25.70;;;8.00;99.90;;;;;;5035546;28;20017;-91
2023/02/11 08:58:46;;;;;;;56.50;26.48;;;8.10;99.90;;;;;;5035865;28;20017;-91
2023/02/11 09:01:18;;;;;;;55.53;26.33;;;8.00;99.90;;;;;;5037072;28;20013;-91
2023/02/11 09:03:44;;;;;;;58.85;25.95;;;8.10;99.90;;;;;;5038424;28;20125;-91
2023/02/11 09:06:11;;;;;;;50.38;26.70;;;8.10;99.90;;;;;;5035407;28;20049;-92
2023/02/11 09:08:39;;;;;;;62.65;27.88;;;8.10;99.90;;;;;;5035229;28;20116;-90
2023/02/11 09:11:08;;;;;;;56.42;28.67;;;8.10;99.90;;;;;;5035779;28;20017;-91
2023/02/11 09:13:38;;;;;;;55.78;27.63;;;8.10;99.90;;;;;;5034724;28;20025;-91
2023/02/11 09:16:04;;;;;;;63.00;27.40;;;8.20;99.90;;;;;;5035292;28;20017;-91
2023/02/11 09:18:31;;;;;;;53.70;28.77;;;8.20;99.90;;;;;;5034564;28;20026;-91
2023/02/11 09:21:04;;;;;;;57.92;28.52;;;8.20;99.90;;;;;;5035419;28;20022;-90
2023/02/11 09:23:33;;;;;;;57.17;28.48;;;8.20;99.90;;;;;;5035602;28;20064;-91
2023/02/11 09:26:05;;;;;;;52.00;27.42;;;8.20;99.90;;;;;;5035207;28;20020;-90
2023/02/11 09:28:33;;;;;;;58.22;28.48;;;8.30;99.90;;;;;;5019567;28;20025;-92
2023/02/11 09:31:05;;;;;;;66.97;30.38;;;8.30;99.90;;;;;;5018828;28;20033;-91
2023/02/11 09:33:33;;;;;;;48.63;24.60;;;8.30;99.90;;;;;;5035035;28;20357;-94
2023/02/11 09:36:01;;;;;;;57.35;29.27;;;8.30;99.90;;;;;;5035359;28;20104;-94
2023/02/11 09:38:27;;;;;;;56.78;26.85;;;8.40;99.90;;;;;;5034768;28;20092;-92
2023/02/11 09:41:06;;;;;;;59.38;30.20;;;8.40;99.90;;;;;;5019502;28;20029;-95
2023/02/11 09:43:38;;;;;;;56.67;28.55;;;8.40;99.90;;;;;;5004435;28;20029;-93
2023/02/11 09:46:09;;;;;;;56.67;28.67;;;8.40;99.90;;;;;;4995953;28;20025;-94
2023/02/11 09:48:40;;;;;;;;;;;8.40;99.90;;;;;;4996055;28;20085;-93
2023/02/11 09:51:33;;;;;;;60.95;28.98;;;8.40;99.90;;;;;;4995444;28;19908;-91
2023/02/11 09:54:06;;;;;;;53.10;28.83;;;8.50;99.90;;;;;;4991152;28;20058;-93
2023/02/11 09:56:32;;;;;;;57.83;29.10;;;8.50;99.90;;;;;;5003876;28;20019;-93
2023/02/11 09:58:58;;;;;;;58.58;30.23;;;8.50;99.90;;;;;;4996869;28;20018;-92
2023/02/11 10:01:50;;;;;;;;;;;;;;;;;;;;;
2023/02/11 10:04:50;;;;;;;58.60;29.27;;;8.50;99.90;;;;;;5025345;28;20041;-95
2023/02/11 10:07:23;;;;;;;57.08;28.50;;;8.60;99.90;;;;;;5018974;28;20037;-95
2023/02/11 10:10:16;;;;;;;59.03;29.65;;;8.60;99.90;;;;;;5028461;28;20005;-94
2023/02/11 10:13:27;;;;;;;50.65;28.70;;;8.60;99.90;;;;;;5041228;28;20026;-94
2023/02/11 10:16:39;;;;;;;54.15;30.15;;;8.60;99.90;;;;;;5022444;28;20029;-93
2023/02/11 10:19:07;;;;;;;57.65;28.88;;;8.60;99.90;;;;;;5017311;28;20454;-94
2023/02/11 10:21:57;;;;;;;56.75;29.88;;;8.70;99.90;;;;;;5018589;28;20025;-96
2023/02/11 10:24:24;;;;;;;50.42;28.00;;;8.70;99.90;;;;;;5018338;28;20018;-96
2023/02/11 10:26:53;;;;;;;57.97;30.38;;;8.70;99.90;;;;;;5017877;28;20092;-92
2023/02/11 10:29:41;;;;;;;54.40;30.25;;;8.80;99.90;;;;;;5035417;28;20521;-91
2023/02/11 10:32:24;;;;;;;54.17;27.75;;;8.80;99.90;;;;;;5020300;28;20044;-94
2023/02/11 10:34:53;;;;;;;54.45;27.60;;;8.80;99.90;;;;;;5021924;28;20017;-92
2023/02/11 10:37:19;;;;;;;51.13;29.27;;;8.80;99.90;;;;;;5026576;28;20028;-92
2023/02/11 10:39:45;;;;;;;52.47;28.77;;;8.90;99.90;;;;;;5032483;28;20017;-93
2023/02/11 10:42:14;;;;;;;56.35;31.25;;;8.90;99.90;;;;;;5037133;28;20069;-91
2023/02/11 10:45:02;;;;;;;55.53;29.65;;;8.90;99.90;;;;;;5036048;28;20017;-90
2023/02/11 10:47:36;;;;;;;50.85;27.73;;;9.00;99.90;;;;;;5030738;28;20445;-89
2023/02/11 10:50:20;;;;;;;46.58;27.77;;;9.00;99.90;;;;;;5033941;28;20096;-93
2023/02/11 10:52:46;;;;;;;44.67;27.95;;;9.00;99.90;;;;;;5027955;28;20060;-93
2023/02/11 10:55:23;;;;;;;46.13;26.35;;;9.00;99.90;;;;;;5018930;28;20018;-93
2023/02/11 10:57:59;;;;;;;49.08;27.95;;;9.00;99.90;;;;;;5018763;28;20021;-92
2023/02/11 11:00:37;;;;;;;44.88;28.88;;;9.10;99.90;;;;;;5018771;28;20021;-94
2023/02/11 11:03:21;;;;;;;46.72;27.05;;;9.10;99.90;;;;;;5035782;28;20014;-85
2023/02/11 11:05:54;;;;;;;46.85;26.67;;;9.10;99.90;;;;;;5018375;28;20036;-91
2023/02/11 11:08:20;;;;;;;42.25;26.48;;;9.10;99.90;;;;;;5037686;28;20029;-94
2023/02/11 11:11:07;;;;;;;43.03;26.15;;;9.10;99.90;;;;;;5017815;28;20040;-88
2023/02/11 11:13:36;;;;;;;48.55;27.75;;;9.10;99.90;;;;;;5016994;28;20040;-92
2023/02/11 11:16:14;;;;;;;45.85;28.25;;;9.10;99.90;;;;;;5017625;28;20101;-92
2023/02/11 11:18:48;;;;;;;40.60;25.48;;;9.20;99.90;;;;;;5017957;28;20029;-92
2023/02/11 11:21:27;;;;;;;45.55;26.75;;;9.20;99.90;;;;;;5017734;28;20049;-92
2023/02/11 11:24:08;;;;;;;42.75;25.67;;;9.30;99.90;;;;;;5027512;28;20021;-96
2023/02/11 11:26:56;;;;;;;44.25;25.42;;;9.30;99.90;;;;;;5040731;28;20029;-92
2023/02/11 11:29:51;;;;;;;39.47;25.02;;;9.30;99.90;;;;;;5027772;28;20053;-95
2023/02/11 11:32:31;;;;;;;35.88;23.90;;;9.40;99.90;;;;;;5021430;28;20018;-96
2023/02/11 11:35:04;;;;;;;42.70;23.40;;;9.40;99.90;;;;;;5035996;23;20041;-79
2023/02/11 11:37:37;;;;;;;36.00;22.70;;;9.50;99.90;;;;;;4996715;28;20038;-79
2023/02/11 11:40:12;;;;;;;41.60;23.63;;;9.40;99.90;;;;;;4979626;28;20027;-79
2023/02/11 11:42:38;;;;;;;39.80;22.95;;;9.50;99.90;;;;;;4979914;28;20026;-83
2023/02/11 11:45:24;;;;;;;39.97;23.77;;;9.50;99.90;;;;;;4979995;28;20098;-83
2023/02/11 11:48:05;;;;;;;33.30;20.67;;;9.50;99.90;;;;;;4979714;28;20037;-83
2023/02/11 11:50:43;;;;;;;34.35;21.20;;;9.60;99.90;;;;;;4979864;28;20023;-83
2023/02/11 11:53:46;;;;;;;31.17;20.30;;;9.60;99.90;;;;;;4997345;28;20022;-83
2023/02/11 11:56:23;;;;;;;35.38;21.27;;;9.70;99.90;;;;;;4997187;28;20027;-83
2023/02/11 11:58:49;;;;;;;32.22;19.95;;;9.70;99.90;;;;;;4997060;28;20018;-83
2023/02/11 12:01:33;;;;;;;33.97;19.48;;;9.70;99.90;;;;;;4979390;28;20061;-82
2023/02/11 12:04:16;;;;;;;29.23;19.67;;;9.80;99.90;;;;;;4979452;28;20018;-83
2023/02/11 12:06:59;;;;;;;31.60;19.17;;;9.80;99.90;;;;;;4979305;28;20034;-83
2023/02/11 12:10:08;;;;;;;28.77;18.77;;;9.80;99.90;;;;;;4979174;28;20117;-83
2023/02/11 12:12:43;;;;;;;25.35;17.55;;;9.90;99.90;;;;;;4963610;28;20468;-82
2023/02/11 12:15:27;;;;;;;29.42;17.88;;;10.00;99.90;;;;;;4979748;28;20027;-84
2023/02/11 12:17:56;;;;;;;25.15;17.15;;;10.00;99.90;;;;;;4997043;28;20030;-84
2023/02/11 12:20:26;;;;;;;23.42;15.85;;;10.10;99.90;;;;;;4979901;28;20046;-84
2023/02/11 12:23:13;;;;;;;27.95;16.63;;;10.10;99.90;;;;;;4995496;28;20080;-84
2023/02/11 12:26:12;;;;;;;26.65;16.00;;;10.20;99.90;;;;;;4980357;28;20030;-84
2023/02/11 12:29:08;;;;;;;24.25;16.33;;;10.20;99.90;;;;;;4979119;28;20026;-84
2023/02/11 12:31:59;;;;;;;25.48;16.27;;;10.30;99.90;;;;;;4979259;28;20026;-84
2023/02/11 12:34:35;;;;;;;23.73;15.47;;;10.40;99.90;;;;;;4979460;28;20356;-84
2023/02/11 12:37:04;;;;;;;24.67;15.65;;;10.40;99.90;;;;;;4991280;28;20097;-86
2023/02/11 12:39:33;;;;;;;21.23;14.20;;;10.40;99.90;;;;;;4975654;28;20403;-86
2023/02/11 12:45:11;;;;;;;23.17;14.07;;;10.60;99.90;;;;;;4977224;28;20178;-86
2023/02/11 12:48:11;;;;;;;25.08;14.93;;;10.60;99.90;;;;;;4975355;28;20551;-86
2023/02/11 12:50:41;;;;;;;22.20;14.50;;;10.60;99.90;;;;;;4976732;28;20036;-86
2023/02/11 12:53:37;;;;;;;20.70;15.07;;;10.70;99.90;;;;;;4975488;28;20058;-86
2023/02/11 12:56:13;;;;;;;21.77;14.25;;;10.70;99.90;;;;;;4975477;28;20030;-86
2023/02/11 12:58:41;;;;;;;24.10;14.30;;;10.70;99.90;;;;;;4976691;28;20107;-86
2023/02/11 13:01:21;;;;;;;24.10;14.23;;;10.80;99.90;;;;;;4991894;28;20023;-86
2023/02/11 13:03:56;;;;;;;20.85;14.07;;;10.80;99.90;;;;;;4975344;28;20086;-86
2023/02/11 13:06:29;;;;;;;22.00;14.10;;;10.80;99.90;;;;;;4975182;28;20069;-82
2023/02/11 13:09:04;;;;;;;26.05;13.32;;;10.90;99.90;;;;;;4976747;28;20027;-82
2023/02/11 13:11:50;;;;;;;19.92;14.00;;;10.90;99.90;;;;;;4976374;28;20031;-82
2023/02/11 13:14:39;;;;;;;22.98;13.48;;;10.90;99.90;;;;;;4976355;28;20023;-82